createdAt,value
2023-03-28T00:00:47.217Z,2.50
2023-03-28T00:03:19.313Z,2.33
2023-03-28T00:05:50.298Z,1.73
2023-03-28T00:08:18.991Z,5.18
2023-03-28T00:10:47.453Z,6.57
2023-03-28T00:13:15.997Z,0.82
2023-03-28T00:15:47.767Z,2.47
2023-03-28T00:18:17.495Z,1.80
2023-03-28T00:20:45.844Z,2.88
2023-03-28T00:23:14.602Z,2.72
2023-03-28T00:25:43.489Z,2.05
2023-03-28T00:28:11.920Z,1.30
2023-03-28T00:30:40.378Z,1.83
2023-03-28T00:33:08.909Z,1.73
2023-03-28T00:35:38.725Z,0.45
2023-03-28T00:38:07.136Z,1.85
2023-03-28T00:40:38.775Z,1.45
2023-03-28T00:43:07.289Z,2.50
2023-03-28T00:45:38.435Z,2.42
2023-03-28T00:48:14.702Z,1.90
2023-03-28T00:50:46.822Z,1.63
2023-03-28T00:53:16.391Z,3.08
2023-03-28T00:55:47.182Z,3.40
2023-03-28T00:58:17.092Z,1.38
2023-03-28T01:00:46.969Z,1.25
2023-03-28T01:03:16.060Z,1.13
2023-03-28T01:05:47.623Z,2.15
2023-03-28T01:08:18.485Z,1.52
2023-03-28T01:10:49.710Z,1.33
2023-03-28T01:13:20.628Z,2.08
2023-03-28T01:15:50.209Z,2.75
2023-03-28T01:18:18.679Z,1.38
2023-03-28T01:21:28.698Z,2.58
2023-03-28T01:24:22.281Z,2.88
2023-03-28T01:26:52.066Z,1.58
2023-03-28T01:29:41.587Z,2.53
2023-03-28T01:32:25.588Z,5.68
2023-03-28T01:35:16.520Z,1.77
2023-03-28T01:37:47.305Z,3.03
2023-03-28T01:40:24.193Z,2.08
2023-03-28T01:42:56.239Z,0.70
2023-03-28T01:45:28.381Z,4.10
2023-03-28T01:47:59.235Z,1.63
2023-03-28T01:50:30.952Z,1.83
2023-03-28T01:53:03.453Z,2.22
2023-03-28T01:55:41.569Z,1.30
2023-03-28T01:58:13.710Z,1.15
2023-03-28T02:00:43.309Z,1.98
2023-03-28T02:03:14.287Z,1.38
2023-03-28T02:05:42.734Z,0.98
2023-03-28T02:08:12.401Z,1.83
2023-03-28T02:10:41.984Z,0.68
2023-03-28T02:13:12.169Z,5.63
2023-03-28T02:15:40.549Z,4.47
2023-03-28T02:18:11.146Z,2.58
2023-03-28T02:20:39.519Z,3.35
2023-03-28T02:23:09.910Z,8.98
2023-03-28T02:25:39.963Z,1.30
2023-03-28T02:28:08.956Z,1.35
2023-03-28T02:30:37.378Z,3.45
2023-03-28T02:33:08.481Z,2.10
2023-03-28T02:35:46.635Z,1.50
2023-03-28T02:38:17.381Z,2.47
2023-03-28T02:40:53.411Z,2.47
2023-03-28T02:43:48.647Z,0.93
2023-03-28T02:46:20.865Z,3.63
2023-03-28T02:49:22.801Z,2.05
2023-03-28T02:51:53.009Z,1.35
2023-03-28T02:54:26.119Z,1.92
2023-03-28T02:57:01.831Z,3.35
2023-03-28T02:59:32.830Z,1.45
2023-03-28T03:02:01.251Z,1.13
2023-03-28T03:04:29.621Z,1.73
2023-03-28T03:07:02.000Z,1.45
2023-03-28T03:09:30.424Z,2.70
2023-03-28T03:12:00.125Z,3.67
2023-03-28T03:14:28.562Z,2.00
2023-03-28T03:16:57.391Z,1.75
2023-03-28T03:19:25.728Z,2.58
2023-03-28T03:21:54.277Z,2.97
2023-03-28T03:24:22.734Z,0.77
2023-03-28T03:26:51.088Z,3.05
2023-03-28T03:29:20.780Z,2.38
2023-03-28T03:31:49.221Z,2.38
2023-03-28T03:34:17.838Z,1.30
2023-03-28T03:36:46.191Z,2.95
2023-03-28T03:39:14.560Z,3.60
2023-03-28T03:41:42.937Z,2.45
2023-03-28T03:44:11.279Z,15.80
2023-03-28T03:46:41.048Z,1.30
2023-03-28T03:49:10.165Z,2.42
2023-03-28T03:51:39.421Z,1.10
2023-03-28T03:54:07.821Z,2.47
2023-03-28T03:56:36.312Z,3.75
2023-03-28T03:59:04.734Z,4.38
2023-03-28T04:01:34.322Z,0.88
2023-03-28T04:04:04.161Z,2.35
2023-03-28T04:06:32.509Z,4.93
2023-03-28T04:09:00.950Z,1.90
2023-03-28T04:11:29.297Z,3.42
2023-03-28T04:13:57.705Z,1.67
2023-03-28T04:16:26.080Z,1.48
2023-03-28T04:18:54.443Z,2.10
2023-03-28T04:21:27.432Z,1.35
2023-03-28T04:23:55.985Z,1.08
2023-03-28T04:26:26.911Z,1.23
2023-03-28T04:28:55.308Z,1.63
2023-03-28T04:31:29.452Z,4.57
2023-03-28T04:34:00.282Z,1.95
2023-03-28T04:36:30.033Z,3.25
2023-03-28T04:39:02.304Z,2.17
2023-03-28T04:41:32.101Z,1.17
2023-03-28T04:44:00.726Z,4.10
2023-03-28T04:46:29.594Z,3.05
2023-03-28T04:48:57.926Z,1.48
2023-03-28T04:51:28.473Z,1.27
2023-03-28T04:53:58.168Z,2.03
2023-03-28T04:56:27.164Z,2.35
2023-03-28T04:58:55.815Z,3.03
2023-03-28T05:01:26.786Z,1.30
2023-03-28T05:03:55.497Z,3.20
2023-03-28T05:06:25.896Z,1.23
2023-03-28T05:08:54.268Z,2.33
2023-03-28T05:11:23.943Z,3.80
2023-03-28T05:13:52.626Z,1.05
2023-03-28T05:16:20.984Z,2.42
2023-03-28T05:18:49.395Z,1.25
2023-03-28T05:21:17.711Z,1.35
2023-03-28T05:23:51.940Z,3.95
2023-03-28T05:26:20.992Z,1.02
2023-03-28T05:28:51.323Z,2.33
2023-03-28T05:31:19.704Z,2.38
2023-03-28T05:33:48.067Z,1.10
2023-03-28T05:36:16.492Z,1.20
2023-03-28T05:38:44.879Z,1.65
2023-03-28T05:41:13.235Z,2.25
2023-03-28T05:43:41.578Z,4.35
2023-03-28T05:46:11.482Z,3.20
2023-03-28T05:48:39.851Z,3.72
2023-03-28T05:51:08.417Z,1.27
2023-03-28T05:53:36.830Z,1.60
2023-03-28T05:56:05.423Z,3.28
2023-03-28T05:58:33.823Z,3.33
2023-03-28T06:01:02.985Z,2.25
2023-03-28T06:03:32.788Z,2.45
2023-03-28T06:06:01.807Z,1.10
2023-03-28T06:08:30.410Z,1.10
2023-03-28T06:11:02.126Z,1.35
2023-03-28T06:13:30.886Z,0.52
2023-03-28T06:15:59.239Z,2.08
2023-03-28T06:18:27.575Z,1.95
2023-03-28T06:20:57.254Z,3.70
2023-03-28T06:23:25.667Z,1.48
2023-03-28T06:25:54.038Z,1.98
2023-03-28T06:28:22.332Z,3.30
2023-03-28T06:30:50.751Z,1.60
2023-03-28T06:33:19.095Z,4.55
2023-03-28T06:35:47.487Z,7.50
2023-03-28T06:38:17.228Z,3.22
2023-03-28T06:40:45.836Z,4.20
2023-03-28T06:43:14.168Z,5.53
2023-03-28T06:45:42.516Z,2.63
2023-03-28T06:48:10.992Z,4.60
2023-03-28T06:50:39.370Z,0.90
2023-03-28T06:53:07.712Z,2.58
2023-03-28T06:55:37.581Z,1.52
2023-03-28T06:58:06.656Z,4.38
2023-03-28T07:00:35.044Z,2.97
2023-03-28T07:03:03.623Z,2.05
2023-03-28T07:05:32.083Z,2.50
2023-03-28T07:08:00.676Z,3.35
2023-03-28T07:10:29.037Z,3.22
2023-03-28T07:12:58.763Z,2.70
2023-03-28T07:15:27.120Z,10.70
2023-03-28T07:17:55.557Z,6.13
2023-03-28T07:20:23.897Z,9.93
2023-03-28T07:22:52.272Z,12.63
2023-03-28T07:25:20.909Z,12.23
2023-03-28T07:27:49.236Z,6.25
2023-03-28T07:30:19.013Z,5.30
2023-03-28T07:32:55.640Z,4.00
2023-03-28T07:35:28.369Z,2.20
2023-03-28T07:37:57.446Z,3.35
2023-03-28T07:40:26.014Z,28.58
2023-03-28T07:42:54.386Z,51.15
2023-03-28T07:45:24.088Z,45.70
2023-03-28T07:47:52.483Z,51.05
2023-03-28T07:50:22.387Z,43.83
2023-03-28T07:52:57.402Z,40.53
2023-03-28T07:55:26.466Z,45.90
2023-03-28T07:57:54.991Z,48.70
2023-03-28T08:00:24.990Z,37.67
2023-03-28T08:02:53.418Z,38.47
2023-03-28T08:05:24.105Z,38.35
2023-03-28T08:07:53.780Z,27.15
2023-03-28T08:10:22.269Z,36.20
2023-03-28T08:12:50.993Z,26.75
2023-03-28T08:15:19.612Z,24.98
2023-03-28T08:17:49.346Z,18.23
2023-03-28T08:20:19.684Z,22.23
2023-03-28T08:22:48.010Z,20.17
2023-03-28T08:25:16.604Z,14.48
2023-03-28T08:27:44.914Z,17.58
2023-03-28T08:30:13.496Z,21.70
2023-03-28T08:32:42.116Z,13.30
2023-03-28T08:35:12.165Z,12.85
2023-03-28T08:37:42.129Z,13.48
2023-03-28T08:40:14.861Z,13.57
2023-03-28T08:42:49.338Z,12.77
2023-03-28T08:45:26.394Z,9.73
2023-03-28T08:50:29.915Z,8.07
2023-03-28T08:52:58.241Z,6.38
2023-03-28T08:55:31.003Z,11.18
2023-03-28T08:57:59.364Z,10.38
2023-03-28T09:00:29.001Z,6.93
2023-03-28T09:02:57.564Z,4.65
2023-03-28T09:05:34.039Z,5.80
2023-03-28T09:08:07.901Z,7.07
2023-03-28T09:10:38.121Z,3.83
2023-03-28T09:13:11.410Z,8.40
2023-03-28T09:15:45.527Z,6.05
2023-03-28T09:18:44.080Z,5.18
2023-03-28T09:21:17.623Z,4.53
2023-03-28T09:23:53.554Z,4.90
2023-03-28T09:26:23.528Z,4.05
2023-03-28T09:28:55.437Z,6.22
2023-03-28T09:31:27.250Z,4.53
2023-03-28T09:33:58.366Z,4.40
2023-03-28T09:36:41.184Z,2.92
2023-03-28T09:39:20.684Z,4.00
2023-03-28T09:41:52.400Z,4.28
2023-03-28T09:44:22.376Z,4.68
2023-03-28T09:46:50.675Z,2.65
2023-03-28T09:49:20.205Z,4.35
2023-03-28T09:51:49.986Z,3.42
2023-03-28T09:54:18.787Z,3.83
2023-03-28T09:56:47.418Z,2.95
2023-03-28T09:59:26.228Z,5.10
2023-03-28T10:01:57.051Z,3.13
2023-03-28T10:04:33.518Z,4.20
2023-03-28T10:07:19.566Z,2.80
2023-03-28T10:09:48.836Z,4.00
2023-03-28T10:12:20.112Z,6.57
2023-03-28T10:14:48.553Z,2.65
2023-03-28T10:17:18.289Z,3.20
2023-03-28T10:19:47.255Z,2.42
2023-03-28T10:22:16.915Z,2.53
2023-03-28T10:24:47.267Z,4.10
2023-03-28T10:27:18.294Z,4.25
2023-03-28T10:29:46.663Z,2.85
2023-03-28T10:32:15.490Z,6.63
2023-03-28T10:34:44.780Z,1.75
2023-03-28T10:37:24.117Z,2.03
2023-03-28T10:40:05.657Z,2.22
2023-03-28T10:42:43.798Z,5.03
2023-03-28T10:45:20.893Z,2.45
2023-03-28T10:50:27.155Z,1.73
2023-03-28T10:52:58.564Z,1.67
2023-03-28T10:55:28.949Z,2.65
2023-03-28T10:58:00.266Z,3.08
2023-03-28T11:00:30.427Z,1.90
2023-03-28T11:03:19.959Z,5.10
2023-03-28T11:06:05.784Z,1.52
2023-03-28T11:08:42.884Z,2.20
2023-03-28T11:11:18.979Z,2.35
2023-03-28T11:13:51.190Z,6.65
2023-03-28T11:16:22.845Z,1.52
2023-03-28T11:18:59.240Z,2.83
2023-03-28T11:21:30.654Z,3.23
2023-03-28T11:24:04.376Z,1.38
2023-03-28T11:26:40.013Z,3.13
2023-03-28T11:29:33.180Z,1.02
2023-03-28T11:32:13.928Z,1.38
2023-03-28T11:34:44.534Z,2.08
2023-03-28T11:37:17.507Z,1.30
2023-03-28T11:39:48.011Z,1.30
2023-03-28T11:42:21.516Z,2.78
2023-03-28T11:44:53.169Z,1.58
2023-03-28T11:47:23.412Z,3.08
2023-03-28T11:49:53.108Z,1.42
2023-03-28T11:52:23.970Z,1.42
2023-03-28T11:54:54.550Z,2.45
2023-03-28T11:57:28.884Z,2.25
2023-03-28T11:59:59.197Z,1.42
2023-03-28T12:02:39.046Z,1.10
2023-03-28T12:05:10.255Z,1.05
2023-03-28T12:07:40.268Z,2.85
2023-03-28T12:10:13.119Z,1.63
2023-03-28T12:12:46.103Z,1.88
2023-03-28T12:15:15.568Z,1.95
2023-03-28T12:17:45.471Z,1.05
2023-03-28T12:20:16.811Z,1.80
2023-03-28T12:22:46.486Z,1.23
2023-03-28T12:25:18.356Z,0.77
2023-03-28T12:27:54.584Z,0.70
2023-03-28T12:30:25.833Z,1.60
2023-03-28T12:32:59.525Z,0.82
2023-03-28T12:35:30.795Z,0.93
2023-03-28T12:38:18.941Z,1.80
2023-03-28T12:40:54.457Z,3.50
2023-03-28T12:43:27.284Z,1.20
2023-03-28T12:45:57.606Z,0.43
2023-03-28T12:48:32.248Z,1.08
2023-03-28T12:51:01.858Z,1.50
2023-03-28T12:53:31.729Z,4.03
2023-03-28T12:56:00.574Z,1.40
2023-03-28T12:58:30.740Z,1.48
2023-03-28T13:01:22.006Z,1.98
2023-03-28T13:03:58.794Z,2.00
2023-03-28T13:06:32.770Z,1.10
2023-03-28T13:09:08.217Z,1.65
2023-03-28T13:11:40.991Z,1.58
2023-03-28T13:14:29.251Z,0.98
2023-03-28T13:16:58.360Z,1.20
2023-03-28T13:19:48.510Z,2.78
2023-03-28T13:22:28.609Z,0.70
2023-03-28T13:25:16.781Z,4.18
2023-03-28T13:27:45.193Z,1.02
2023-03-28T13:30:17.395Z,2.22
2023-03-28T13:32:46.786Z,1.15
2023-03-28T13:35:40.328Z,1.00
2023-03-28T13:38:25.234Z,0.98
2023-03-28T13:40:55.702Z,1.40
2023-03-28T13:43:28.392Z,0.80
2023-03-28T13:45:59.633Z,0.73
2023-03-28T13:48:32.415Z,0.93
2023-03-28T13:51:02.083Z,1.52
2023-03-28T13:53:44.753Z,6.40
2023-03-28T13:56:24.222Z,6.60
2023-03-28T13:58:53.392Z,1.75
2023-03-28T14:01:25.410Z,3.67
2023-03-28T14:03:54.268Z,2.65
2023-03-28T14:06:23.585Z,1.50
2023-03-28T14:08:52.905Z,1.33
2023-03-28T14:11:23.417Z,0.73
2023-03-28T14:13:52.371Z,5.18
2023-03-28T14:16:21.151Z,2.20
2023-03-28T14:18:51.254Z,1.05
2023-03-28T14:21:19.591Z,0.70
2023-03-28T14:23:57.045Z,1.30
2023-03-28T14:26:27.459Z,1.05
2023-03-28T14:28:59.579Z,1.05
2023-03-28T14:31:32.256Z,0.70
2023-03-28T14:34:04.972Z,2.50
2023-03-28T14:36:37.761Z,1.92
2023-03-28T14:39:13.383Z,2.47
2023-03-28T14:41:42.293Z,1.17
2023-03-28T14:44:10.683Z,1.30
2023-03-28T14:46:39.110Z,0.90
2023-03-28T14:49:10.234Z,0.75
2023-03-28T14:51:42.570Z,0.80
2023-03-28T14:54:15.500Z,1.08
2023-03-28T14:56:44.151Z,2.42
2023-03-28T14:59:15.849Z,2.35
2023-03-28T15:01:44.674Z,5.03
2023-03-28T15:04:14.449Z,1.20
2023-03-28T15:06:42.909Z,0.43
2023-03-28T15:09:12.571Z,2.05
2023-03-28T15:11:43.491Z,1.10
2023-03-28T15:14:14.990Z,0.90
2023-03-28T15:16:43.988Z,0.75
2023-03-28T15:19:18.445Z,1.77
2023-03-28T15:21:52.912Z,0.85
2023-03-28T15:24:21.241Z,1.60
2023-03-28T15:26:51.042Z,1.25
2023-03-28T15:29:20.185Z,1.35
2023-03-28T15:31:48.596Z,1.17
2023-03-28T15:34:22.287Z,2.00
2023-03-28T15:36:52.789Z,0.73
2023-03-28T15:39:24.375Z,1.08
2023-03-28T15:41:54.572Z,0.77
2023-03-28T15:44:30.485Z,0.80
2023-03-28T15:47:00.662Z,1.23
2023-03-28T15:49:30.451Z,0.98
2023-03-28T15:52:02.693Z,0.60
2023-03-28T15:54:32.017Z,1.90
2023-03-28T15:57:01.648Z,0.70
2023-03-28T15:59:33.351Z,1.27
2023-03-28T16:02:19.842Z,1.02
2023-03-28T16:05:06.142Z,5.32
2023-03-28T16:07:36.233Z,3.13
2023-03-28T16:10:05.072Z,3.60
2023-03-28T16:12:33.375Z,3.42
2023-03-28T16:15:02.081Z,2.10
2023-03-28T16:17:31.066Z,1.90
2023-03-28T16:19:59.508Z,5.18
2023-03-28T16:22:29.159Z,1.40
2023-03-28T16:24:57.561Z,1.75
2023-03-28T16:27:25.932Z,5.72
2023-03-28T16:29:54.261Z,6.43
2023-03-28T16:32:23.856Z,4.85
2023-03-28T16:34:52.298Z,4.93
2023-03-28T16:37:20.709Z,3.47
2023-03-28T16:39:50.450Z,3.70
2023-03-28T16:42:20.865Z,4.32
2023-03-28T16:44:49.252Z,2.10
2023-03-28T16:47:17.601Z,3.30
2023-03-28T16:49:46.180Z,5.45
2023-03-28T16:52:14.627Z,1.15
2023-03-28T16:54:44.114Z,3.75
2023-03-28T16:57:13.817Z,3.05
2023-03-28T16:59:42.232Z,3.45
2023-03-28T17:02:10.863Z,3.70
2023-03-28T17:04:39.228Z,4.03
2023-03-28T17:07:07.635Z,2.05
2023-03-28T17:09:36.149Z,1.80
2023-03-28T17:12:04.694Z,3.80
2023-03-28T17:14:36.101Z,4.28
2023-03-28T17:17:04.541Z,1.75
2023-03-28T17:19:33.063Z,5.03
2023-03-28T17:22:04.647Z,3.58
2023-03-28T17:24:33.088Z,3.10
2023-03-28T17:27:01.723Z,1.98
2023-03-28T17:29:30.039Z,4.88
2023-03-28T17:31:59.755Z,5.47
2023-03-28T17:34:31.907Z,3.42
2023-03-28T17:37:00.485Z,2.72
2023-03-28T17:39:29.444Z,1.92
2023-03-28T17:41:57.833Z,2.22
2023-03-28T17:44:26.437Z,4.05
2023-03-28T17:46:56.623Z,1.60
2023-03-28T17:49:26.402Z,3.42
2023-03-28T17:51:56.707Z,1.95
2023-03-28T17:54:25.580Z,1.65
2023-03-28T17:56:53.989Z,6.10
2023-03-28T17:59:22.617Z,2.00
2023-03-28T18:01:51.068Z,2.65
2023-03-28T18:04:22.110Z,3.33
2023-03-28T18:06:51.832Z,1.52
2023-03-28T18:09:20.175Z,2.75
2023-03-28T18:11:49.004Z,2.55
2023-03-28T18:14:17.895Z,3.65
2023-03-28T18:16:46.812Z,1.95
2023-03-28T18:19:18.276Z,1.60
2023-03-28T18:21:46.634Z,3.95
2023-03-28T18:24:16.291Z,2.72
2023-03-28T18:26:44.990Z,1.83
2023-03-28T18:29:13.412Z,2.00
2023-03-28T18:31:42.517Z,2.30
2023-03-28T18:34:11.862Z,1.75
2023-03-28T18:36:42.258Z,1.40
2023-03-28T18:39:10.949Z,3.28
2023-03-28T18:41:40.608Z,1.65
2023-03-28T18:44:08.931Z,3.25
2023-03-28T18:46:37.365Z,2.58
2023-03-28T18:49:06.436Z,3.33
2023-03-28T18:51:35.476Z,2.83
2023-03-28T18:54:03.845Z,1.90
2023-03-28T18:56:32.944Z,1.73
2023-03-28T18:59:03.987Z,1.50
2023-03-28T19:01:34.093Z,1.77
2023-03-28T19:04:02.610Z,1.58
2023-03-28T19:06:31.140Z,3.08
2023-03-28T19:08:59.478Z,1.48
2023-03-28T19:11:28.174Z,1.15
2023-03-28T19:13:56.538Z,1.95
2023-03-28T19:16:26.646Z,1.85
2023-03-28T19:18:54.977Z,1.88
2023-03-28T19:21:23.318Z,1.67
2023-03-28T19:23:52.595Z,1.83
2023-03-28T19:26:21.525Z,2.45
2023-03-28T19:28:50.251Z,1.40
2023-03-28T19:31:20.219Z,1.48
2023-03-28T19:33:49.942Z,2.15
2023-03-28T19:36:18.413Z,1.33
2023-03-28T19:38:46.807Z,1.90
2023-03-28T19:41:17.899Z,2.50
2023-03-28T19:43:46.289Z,1.67
2023-03-28T19:46:16.546Z,1.05
2023-03-28T19:48:45.005Z,0.68
2023-03-28T19:51:15.405Z,1.30
2023-03-28T19:53:43.752Z,1.77
2023-03-28T19:56:12.167Z,1.38
2023-03-28T19:58:40.480Z,1.80
2023-03-28T20:01:08.871Z,0.88
2023-03-28T20:03:37.219Z,2.78
2023-03-28T20:06:06.793Z,1.60
2023-03-28T20:08:36.519Z,1.30
2023-03-28T20:11:05.069Z,1.25
2023-03-28T20:13:33.412Z,1.77
2023-03-28T20:16:02.698Z,3.50
2023-03-28T20:18:32.627Z,5.88
2023-03-28T20:21:05.096Z,0.75
2023-03-28T20:23:33.497Z,3.67
2023-03-28T20:26:14.093Z,1.02
2023-03-28T20:28:42.481Z,1.73
2023-03-28T20:31:12.446Z,1.33
2023-03-28T20:33:41.128Z,1.38
2023-03-28T20:36:09.613Z,1.42
2023-03-28T20:38:37.936Z,0.77
2023-03-28T20:41:11.998Z,2.60
2023-03-28T20:43:47.003Z,1.45
2023-03-28T20:46:18.227Z,2.10
2023-03-28T20:48:47.989Z,1.08
2023-03-28T20:51:17.506Z,1.40
2023-03-28T20:53:47.487Z,1.02
2023-03-28T20:56:17.692Z,1.58
2023-03-28T20:58:49.285Z,0.60
2023-03-28T21:01:25.188Z,0.98
2023-03-28T21:03:54.601Z,0.77
2023-03-28T21:06:25.164Z,1.20
2023-03-28T21:08:54.277Z,0.75
2023-03-28T21:11:26.239Z,1.00
2023-03-28T21:13:54.705Z,1.15
2023-03-28T21:16:23.232Z,1.85
2023-03-28T21:18:52.032Z,0.98
2023-03-28T21:21:20.899Z,1.02
2023-03-28T21:23:49.249Z,1.13
2023-03-28T21:26:18.349Z,0.70
2023-03-28T21:28:48.169Z,1.92
2023-03-28T21:31:18.162Z,1.83
2023-03-28T21:33:46.709Z,1.95
2023-03-28T21:36:16.828Z,1.27
2023-03-28T21:38:45.575Z,1.10
2023-03-28T21:41:14.109Z,0.75
2023-03-28T21:43:42.459Z,3.58
2023-03-28T21:46:13.472Z,0.85
2023-03-28T21:48:43.292Z,0.93
2023-03-28T21:51:11.972Z,1.60
2023-03-28T21:53:42.219Z,3.63
2023-03-28T21:56:11.626Z,3.50
2023-03-28T21:58:40.066Z,1.50
2023-03-28T22:01:08.500Z,0.57
2023-03-28T22:03:38.964Z,5.05
2023-03-28T22:06:08.246Z,2.35
2023-03-28T22:08:36.653Z,3.13
2023-03-28T22:11:13.364Z,13.88
2023-03-28T22:13:41.714Z,2.50
2023-03-28T22:16:12.756Z,1.90
2023-03-28T22:18:50.087Z,1.63
2023-03-28T22:21:18.829Z,2.15
2023-03-28T22:23:47.845Z,15.98
2023-03-28T22:26:16.468Z,1.25
2023-03-28T22:28:44.847Z,1.42
2023-03-28T22:31:13.187Z,0.60
2023-03-28T22:33:43.077Z,1.77
2023-03-28T22:36:12.900Z,1.75
2023-03-28T22:38:41.227Z,1.25
2023-03-28T22:41:09.539Z,0.75
2023-03-28T22:43:38.340Z,3.78
2023-03-28T22:46:07.265Z,1.15
2023-03-28T22:48:38.131Z,0.57
2023-03-28T22:51:11.747Z,0.90
2023-03-28T22:53:40.279Z,1.42
2023-03-28T22:56:09.676Z,4.25
2023-03-28T22:58:38.153Z,2.65
2023-03-28T23:01:07.354Z,1.25
2023-03-28T23:03:35.755Z,1.40
2023-03-28T23:06:06.110Z,1.67
2023-03-28T23:08:36.224Z,0.80
2023-03-28T23:11:04.840Z,0.38
2023-03-28T23:13:33.226Z,1.60
2023-03-28T23:16:02.307Z,0.60
2023-03-28T23:18:32.832Z,0.98
2023-03-28T23:21:01.939Z,0.75
2023-03-28T23:23:32.171Z,0.50
2023-03-28T23:26:01.817Z,1.02
2023-03-28T23:28:30.410Z,1.65
2023-03-28T23:30:58.850Z,1.20
2023-03-28T23:33:27.217Z,0.88
2023-03-28T23:35:55.542Z,1.45
2023-03-28T23:38:24.162Z,0.80
2023-03-28T23:40:52.500Z,3.03
2023-03-28T23:43:22.295Z,1.05
2023-03-28T23:45:50.680Z,0.60
2023-03-28T23:48:19.074Z,2.97
2023-03-28T23:50:47.453Z,3.85
2023-03-28T23:53:15.887Z,0.60
2023-03-28T23:55:44.484Z,0.65
2023-03-28T23:58:12.801Z,3.65
